Time;durP1;ratioP1;P1;durP2;ratioP2;P2;SDS_P1;SDS_P2;PMS_P1;PMS_P2;Temp;Humidity;BMP_temperature;BMP_pressure;BME280_temperature;BME280_humidity;BME280_pressure;Samples;Min_cycle;Max_cycle;Signal;HPM_P1;HPM_P2
2022/01/21 00:01:38;;;;;;;14.98;10.40;;;;;;;5.94;44.97;101057.49;1723723;82;21003;-51
2022/01/21 00:04:05;;;;;;;15.10;11.53;;;;;;;5.95;45.04;101056.65;1734093;81;20939;-51
2022/01/21 00:06:32;;;;;;;16.27;11.08;;;;;;;5.95;45.10;101056.65;1731262;81;21053;-51
2022/01/21 00:08:59;;;;;;;15.85;11.10;;;;;;;5.94;45.19;101057.49;1724204;81;21491;-51
2022/01/21 00:11:29;;;;;;;19.05;11.18;;;;;;;5.93;45.29;101062.24;1733579;81;21479;-51
2022/01/21 00:13:54;;;;;;;16.90;11.43;;;;;;;5.94;45.42;101063.08;1730717;81;21022;-51
2022/01/21 00:16:24;;;;;;;17.60;11.33;;;;;;;5.93;45.50;101060.95;1733128;81;21038;-51
2022/01/21 00:32:25;;;;;;;18.70;11.53;;;;;;;5.89;45.94;101074.72;1636247;88;21128;-52
2022/01/21 00:34:51;;;;;;;17.23;11.57;;;;;;;5.88;46.06;101064.36;1636166;88;21017;-51
2022/01/21 00:37:17;;;;;;;17.30;11.12;;;;;;;5.88;46.12;101069.10;1636489;88;21069;-52
2022/01/21 00:39:50;;;;;;;17.73;11.18;;;;;;;5.86;46.14;101068.23;1636487;88;20978;-51
2022/01/21 00:42:31;;;;;;;17.75;11.55;;;;;;;5.85;46.20;101078.16;1636433;88;21064;-51
2022/01/21 00:44:40;;;;;;;17.65;12.10;;;;;;;5.84;46.26;101080.70;1636484;88;20974;-51
2022/01/21 00:47:08;;;;;;;16.60;11.10;;;;;;;5.82;46.16;101078.09;1636291;86;22231;-51
2022/01/21 00:49:35;;;;;;;16.55;11.25;;;;;;;5.82;46.17;101070.34;1636398;88;21045;-51
2022/01/21 00:52:03;;;;;;;15.98;11.53;;;;;;;5.82;46.12;101070.34;1636593;88;21482;-51
2022/01/21 00:54:29;;;;;;;17.62;12.00;;;;;;;5.80;46.15;101072.06;1636284;88;21064;-52
2022/01/21 00:56:56;;;;;;;18.60;12.33;;;;;;;5.80;46.22;101074.65;1636393;88;21022;-51
2022/01/21 00:59:22;;;;;;;14.28;11.10;;;;;;;5.81;46.21;101076.39;1636284;88;21097;-51
2022/01/21 01:01:49;;;;;;;15.50;11.68;;;;;;;5.82;46.23;101074.64;1636294;88;21090;-51
2022/01/21 01:04:17;;;;;;;17.95;11.18;;;;;;;5.81;46.16;101075.09;1636450;88;21133;-51
2022/01/21 01:06:43;;;;;;;15.30;10.95;;;;;;;5.82;46.11;101072.94;1636607;88;21109;-51
2022/01/21 01:09:10;;;;;;;15.98;11.83;;;;;;;5.83;46.06;101079.83;1636341;88;21028;-51
2022/01/21 01:20:02;;;;;;;17.87;11.22;;;;;;;5.85;46.06;101072.98;1649683;86;21042;-51
2022/01/21 01:27:47;;;;;;;19.50;11.15;;;;;;;5.85;46.11;101066.53;1613338;88;21043;-52
2022/01/21 01:30:17;;;;;;;16.57;12.40;;;;;;;5.84;46.10;101066.08;1615210;88;21142;-51
2022/01/21 01:32:46;;;;;;;16.00;10.90;;;;;;;5.83;46.12;101059.17;1615695;88;21542;-51
2022/01/21 01:35:14;;;;;;;17.50;11.55;;;;;;;5.84;46.09;101060.05;1615655;88;21534;-51
2022/01/21 01:40:18;;;;;;;15.83;11.50;;;;;;;5.82;46.13;101071.64;1652179;86;21061;-51
2022/01/21 01:50:48;;;;;;;16.12;11.60;;;;;;;5.74;46.18;101073.34;1599077;88;21076;-51
2022/01/21 01:53:15;;;;;;;17.45;11.38;;;;;;;5.72;46.20;101078.93;1611614;88;21481;-51
2022/01/21 01:55:42;;;;;;;16.05;11.55;;;;;;;5.70;46.22;101070.32;1611451;88;21529;-51
2022/01/21 01:58:12;;;;;;;20.35;11.45;;;;;;;5.71;46.27;101069.45;1610691;88;21112;-51
2022/01/21 02:00:37;;;;;;;16.87;12.18;;;;;;;5.71;46.22;101073.31;1608655;88;21595;-51
2022/01/21 02:03:06;;;;;;;14.83;11.10;;;;;;;5.67;46.33;101083.20;1630401;87;21647;-52
2022/01/21 02:05:33;;;;;;;18.00;11.57;;;;;;;5.63;46.30;101083.63;1627541;88;21075;-51
2022/01/21 02:07:59;;;;;;;15.63;10.82;;;;;;;5.61;46.30;101075.44;1628154;87;20994;-51
2022/01/21 02:10:26;;;;;;;16.80;10.68;;;;;;;5.58;46.42;101072.86;1627979;87;21113;-51
2022/01/21 02:13:05;;;;;;;15.48;11.48;;;;;;;5.55;46.43;101071.55;1627233;87;21113;-51
2022/01/21 02:15:34;;;;;;;16.75;10.80;;;;;;;5.52;46.49;101076.72;1594924;90;21121;-51
2022/01/21 02:23:29;;;;;;;13.50;10.30;;;;;;;5.46;46.57;101070.24;1647379;86;21161;-51
2022/01/21 02:25:55;;;;;;;13.88;10.03;;;;;;;5.44;46.72;101075.83;1666889;85;21061;-51
2022/01/21 02:28:22;;;;;;;12.33;9.88;;;;;;;5.42;46.80;101079.67;1681202;85;21021;-51
2022/01/21 02:30:59;;;;;;;14.28;10.08;;;;;;;5.42;46.93;101078.83;1623864;87;21623;-51
2022/01/21 02:33:26;;;;;;;14.20;9.30;;;;;;;5.40;47.04;101077.97;1679587;83;21088;-51
2022/01/21 02:35:55;;;;;;;15.63;10.10;;;;;;;5.39;47.09;101086.55;1678257;84;21026;-51
2022/01/21 02:38:21;;;;;;;14.68;9.73;;;;;;;5.37;47.23;101081.38;1673665;84;21049;-51
2022/01/21 02:40:48;;;;;;;13.80;9.75;;;;;;;5.36;47.31;101082.64;1679355;84;21050;-51
2022/01/21 02:43:15;;;;;;;13.78;9.63;;;;;;;5.41;47.05;101074.51;1681274;84;21080;-51
2022/01/21 02:45:45;;;;;;;13.32;9.63;;;;;;;5.43;46.92;101071.50;1681267;84;21089;-52
2022/01/21 02:48:11;;;;;;;12.75;8.60;;;;;;;5.47;46.85;101064.20;1679013;84;21608;-51
2022/01/21 02:50:39;;;;;;;13.62;9.05;;;;;;;5.49;46.89;101067.66;1679511;84;21069;-51
2022/01/21 02:53:26;;;;;;;14.07;8.50;;;;;;;5.51;46.78;101081.43;1680201;85;21049;-51
2022/01/21 02:55:40;;;;;;;12.60;9.45;;;;;;;5.54;46.78;101094.36;1668883;84;21116;-51
2022/01/21 02:58:07;;;;;;;10.78;8.45;;;;;;;5.58;46.70;101107.30;1680802;84;21085;-51
2022/01/21 03:00:34;;;;;;;13.22;9.50;;;;;;;5.64;46.56;101121.94;1679168;84;21264;-52
2022/01/21 03:03:04;;;;;;;15.40;8.38;;;;;;;5.62;46.51;101113.32;1728757;81;21022;-52
2022/01/21 03:05:34;;;;;;;14.18;8.43;;;;;;;5.60;46.52;101122.78;1744691;81;21006;-51
2022/01/21 03:08:01;;;;;;;11.80;8.70;;;;;;;5.60;46.52;101121.48;1708628;83;21510;-51
2022/01/21 03:10:28;;;;;;;10.38;7.92;;;;;;;5.64;46.44;101128.39;1744676;81;21035;-51
2022/01/21 03:12:55;;;;;;;11.95;8.63;;;;;;;5.62;46.38;101137.42;1706846;83;21510;-51
2022/01/21 03:15:21;;;;;;;14.70;9.93;;;;;;;5.59;46.51;101136.52;1705877;83;21479;-51
2022/01/21 03:17:48;;;;;;;10.32;8.48;;;;;;;5.55;46.73;101141.23;1705896;83;21502;-51
2022/01/21 03:20:14;;;;;;;9.78;8.20;;;;;;;5.49;46.98;101145.09;1705729;83;21038;-51
2022/01/21 03:22:41;;;;;;;17.17;8.05;;;;;;;5.47;47.33;101158.41;1706218;83;21045;-51
2022/01/21 03:25:09;;;;;;;9.35;7.67;;;;;;;5.49;47.81;101154.12;1707792;83;21065;-51
2022/01/21 03:27:36;;;;;;;10.23;7.55;;;;;;;5.51;48.40;101169.19;1704643;83;21053;-51
2022/01/21 03:30:05;;;;;;;11.65;7.67;;;;;;;5.54;48.63;101164.89;1708684;83;20994;-51
2022/01/21 03:32:35;;;;;;;9.53;6.78;;;;;;;5.58;48.57;101170.95;1740405;81;21029;-51
2022/01/21 03:35:02;;;;;;;9.48;7.17;;;;;;;5.60;48.63;101161.50;1741127;81;21077;-51
2022/01/21 03:37:29;;;;;;;9.85;6.53;;;;;;;5.63;48.31;101148.59;1741493;81;21039;-51
2022/01/21 03:39:56;;;;;;;9.60;7.22;;;;;;;5.64;48.14;101155.49;1741220;81;21533;-51
2022/01/21 03:42:22;;;;;;;9.38;7.12;;;;;;;5.66;48.41;101169.27;1741851;81;21522;-51
2022/01/21 03:44:49;;;;;;;9.55;6.90;;;;;;;5.66;48.38;101177.89;1742477;81;21510;-51
2022/01/21 03:47:16;;;;;;;9.70;7.00;;;;;;;5.66;48.24;101179.59;1708873;83;21541;-51
2022/01/21 03:49:54;;;;;;;8.08;6.78;;;;;;;5.63;47.94;101177.86;1708162;83;21093;-52
2022/01/21 03:52:10;;;;;;;8.35;6.30;;;;;;;5.60;47.74;101187.31;1700599;83;21049;-51
2022/01/21 03:54:37;;;;;;;9.78;6.53;;;;;;;5.58;47.46;101195.48;1707171;83;21467;-50
2022/01/21 03:57:04;;;;;;;9.00;6.17;;;;;;;5.57;47.40;101188.16;1705868;82;21092;-51
2022/01/21 03:59:31;;;;;;;10.55;5.33;;;;;;;5.56;47.18;101197.19;1705431;83;21019;-50
2022/01/21 04:01:58;;;;;;;6.78;4.85;;;;;;;5.56;46.91;101190.73;1705720;83;21033;-51
2022/01/21 04:04:25;;;;;;;8.98;5.03;;;;;;;5.54;46.96;101187.28;1705816;83;21045;-51
2022/01/21 04:06:51;;;;;;;7.65;4.33;;;;;;;5.53;47.21;101195.86;1707390;83;20990;-51
2022/01/21 04:09:19;;;;;;;6.60;4.53;;;;;;;5.49;47.03;101216.06;1708649;83;21454;-51
2022/01/21 04:11:46;;;;;;;5.65;4.75;;;;;;;5.47;46.95;101213.90;1708179;82;21652;-51
2022/01/21 04:14:12;;;;;;;5.47;3.45;;;;;;;5.42;46.87;101213.02;1705894;83;21541;-51
2022/01/21 04:16:40;;;;;;;3.80;3.27;;;;;;;5.41;47.00;101219.02;1704724;83;21069;-52
2022/01/21 04:19:06;;;;;;;4.35;2.92;;;;;;;5.42;47.10;101224.19;1709374;83;21025;-51
2022/01/21 04:21:33;;;;;;;3.72;2.85;;;;;;;5.42;47.00;101238.83;1708900;83;20943;-51
2022/01/21 04:24:02;;;;;;;5.12;3.27;;;;;;;5.39;46.75;101240.09;1704596;83;21636;-51
2022/01/21 04:26:37;;;;;;;4.53;2.72;;;;;;;5.39;46.87;101256.86;1734109;81;20988;-51
2022/01/21 04:29:08;;;;;;;4.47;2.70;;;;;;;5.37;46.71;101266.31;1698434;83;21002;-51
2022/01/21 04:31:36;;;;;;;3.98;2.15;;;;;;;5.37;46.40;101274.05;1732624;81;20979;-51
2022/01/21 04:34:03;;;;;;;4.10;2.02;;;;;;;5.34;46.20;101271.42;1732898;81;21044;-51
2022/01/21 04:36:31;;;;;;;3.67;2.47;;;;;;;5.33;46.34;101280.04;1733018;82;20991;-51
2022/01/21 04:39:00;;;;;;;3.75;2.35;;;;;;;5.33;46.36;101281.33;1733967;81;21074;-51
2022/01/21 04:49:33;;;;;;;3.58;1.60;;;;;;;5.26;45.50;101314.38;1737030;82;21499;-51
2022/01/21 04:52:02;;;;;;;2.60;1.50;;;;;;;5.22;45.51;101328.09;1740082;81;20999;-51
2022/01/21 04:54:35;;;;;;;2.50;1.70;;;;;;;5.20;45.53;101328.51;1697364;84;21042;-50
2022/01/21 04:57:03;;;;;;;3.65;1.60;;;;;;;5.18;45.59;101334.08;1698441;84;20990;-51
2022/01/21 04:59:31;;;;;;;2.17;1.60;;;;;;;5.17;45.46;101347.84;1697787;84;21002;-51
2022/01/21 05:01:58;;;;;;;2.58;1.90;;;;;;;5.16;45.28;101335.36;1698127;84;20993;-51
2022/01/21 05:04:25;;;;;;;3.37;1.70;;;;;;;5.18;45.19;101343.11;1698477;84;21121;-51
2022/01/21 05:06:53;;;;;;;2.02;1.30;;;;;;;5.21;45.26;101351.77;1698847;84;21077;-51
2022/01/21 05:09:30;;;;;;;3.15;1.85;;;;;;;5.23;45.05;101347.91;1692917;84;21002;-51
2022/01/21 05:11:55;;;;;;;3.95;1.72;;;;;;;5.22;45.02;101353.48;1731872;82;21538;-51
2022/01/21 05:14:25;;;;;;;3.17;1.80;;;;;;;5.21;44.87;101348.31;1730587;81;21058;-51
2022/01/21 05:17:02;;;;;;;3.70;1.80;;;;;;;5.23;45.21;101353.06;1694658;84;21046;-51
2022/01/21 05:19:22;;;;;;;4.87;1.67;;;;;;;5.24;45.19;101352.20;1696737;84;21054;-51
2022/01/21 05:21:51;;;;;;;2.17;1.50;;;;;;;5.24;45.14;101353.48;1727935;82;21019;-51
2022/01/21 05:24:20;;;;;;;2.70;1.87;;;;;;;5.25;45.32;101364.27;1662111;85;21117;-51
2022/01/21 05:26:53;;;;;;;3.62;2.30;;;;;;;5.27;45.27;101376.33;1654806;87;21570;-52
2022/01/21 05:29:24;;;;;;;2.92;2.08;;;;;;;5.26;45.11;101386.61;1654758;87;21511;-51
2022/01/21 05:31:55;;;;;;;3.35;2.12;;;;;;;5.26;45.30;101376.30;1651439;87;21038;-52
2022/01/21 05:34:33;;;;;;;5.45;2.20;;;;;;;5.29;45.29;101368.18;1645897;87;21054;-51
2022/01/21 05:37:04;;;;;;;3.17;2.10;;;;;;;5.30;45.21;101366.02;1609463;89;21064;-51
2022/01/21 05:39:33;;;;;;;4.45;2.20;;;;;;;5.31;45.21;101375.51;1606436;89;21085;-51
2022/01/21 05:42:03;;;;;;;3.87;2.52;;;;;;;5.32;44.94;101389.25;1606354;89;21156;-51
2022/01/21 05:47:24;;;;;;;7.00;2.25;;;;;;;5.31;45.00;101390.98;1603177;89;21154;-51
2022/01/21 05:50:02;;;;;;;2.45;1.92;;;;;;;5.38;45.06;101391.92;1575196;91;21081;-51
2022/01/21 05:52:41;;;;;;;5.72;2.08;;;;;;;5.44;45.00;101395.84;1494340;95;21179;-51
2022/01/21 05:55:08;;;;;;;4.20;2.08;;;;;;;5.48;44.76;101395.86;1462358;98;21128;-52
2022/01/21 05:57:54;;;;;;;3.47;2.10;;;;;;;5.55;44.65;101408.41;1462398;98;21108;-51
2022/01/21 06:00:22;;;;;;;4.10;2.40;;;;;;;5.60;44.55;101415.78;1464939;98;21099;-51
2022/01/21 06:02:48;;;;;;;4.37;2.20;;;;;;;5.67;44.39;101416.25;1464360;98;21085;-51
2022/01/21 06:05:15;;;;;;;4.70;2.45;;;;;;;5.72;44.26;101410.30;1437289;99;21239;-51
2022/01/21 06:07:42;;;;;;;2.35;1.85;;;;;;;5.78;44.14;101405.59;1428670;100;21138;-51
2022/01/21 06:10:09;;;;;;;5.55;2.33;;;;;;;5.80;43.82;101412.93;1428523;100;21122;-51
2022/01/21 06:12:36;;;;;;;4.25;2.30;;;;;;;5.81;43.60;101425.01;1428799;100;21216;-51
2022/01/21 06:15:04;;;;;;;4.85;2.42;;;;;;;5.79;43.22;101424.97;1444580;99;21177;-51
2022/01/21 06:17:31;;;;;;;4.72;2.33;;;;;;;5.76;43.30;101431.83;1450869;97;21105;-51
2022/01/21 06:19:57;;;;;;;5.65;2.20;;;;;;;5.77;43.30;101436.13;1449825;97;21043;-51
2022/01/21 06:22:23;;;;;;;6.45;3.33;;;;;;;5.77;43.24;101437.00;1497502;95;21161;-52
2022/01/21 06:24:52;;;;;;;5.15;3.02;;;;;;;5.77;43.26;101434.84;1509202;94;21154;-53
2022/01/21 06:27:25;;;;;;;5.53;2.80;;;;;;;5.82;43.20;101454.25;1522397;94;21164;-52
2022/01/21 06:29:46;;;;;;;2.33;1.90;;;;;;;5.87;43.09;101468.13;1509957;94;21102;-52
2022/01/21 06:32:12;;;;;;;2.77;2.00;;;;;;;5.92;42.95;101468.59;1534205;91;21179;-52
2022/01/21 06:34:39;;;;;;;2.87;2.35;;;;;;;5.98;42.86;101475.09;1552359;91;21069;-52
2022/01/21 06:37:06;;;;;;;6.75;2.58;;;;;;;6.02;42.69;101484.59;1527327;93;21042;-51
2022/01/21 06:39:32;;;;;;;7.95;2.35;;;;;;;6.05;42.55;101494.98;1527408;93;21070;-51
2022/01/21 06:41:58;;;;;;;5.55;2.67;;;;;;;6.08;42.29;101492.40;1530547;88;21536;-51
2022/01/21 06:44:26;;;;;;;5.22;2.40;;;;;;;6.08;42.29;101492.40;1610945;88;21587;-52
2022/01/21 06:46:53;;;;;;;8.25;2.20;;;;;;;6.10;42.22;101491.98;1717692;82;21515;-52
2022/01/21 06:49:19;;;;;;;5.15;2.17;;;;;;;6.12;42.18;101495.44;1721446;82;21002;-51
2022/01/21 06:51:46;;;;;;;11.30;2.67;;;;;;;6.15;42.01;101495.48;1713416;82;21052;-52
2022/01/21 06:54:13;;;;;;;3.25;2.27;;;;;;;6.18;41.92;101499.36;1721093;82;21009;-51
2022/01/21 06:56:39;;;;;;;4.37;2.52;;;;;;;6.20;41.87;101511.87;1721086;83;21048;-51
2022/01/21 06:59:06;;;;;;;5.72;2.92;;;;;;;6.23;41.57;101504.16;1720731;82;21019;-52
2022/01/21 07:01:33;;;;;;;4.80;2.35;;;;;;;6.25;41.42;101497.28;1720986;82;21042;-52
2022/01/21 07:03:59;;;;;;;3.42;2.30;;;;;;;6.28;41.41;101496.03;1721484;82;21491;-51
2022/01/21 07:06:25;;;;;;;4.28;1.92;;;;;;;6.31;41.28;101501.20;1721500;82;20998;-52
2022/01/21 07:08:52;;;;;;;4.37;2.00;;;;;;;6.34;41.11;101499.95;1722260;82;21073;-52
2022/01/21 07:11:18;;;;;;;4.10;2.47;;;;;;;6.34;40.90;101501.23;1721026;82;21038;-52
2022/01/21 07:13:45;;;;;;;3.95;2.17;;;;;;;6.37;40.83;101498.66;1721530;83;21042;-50
2022/01/21 07:16:12;;;;;;;5.03;2.40;;;;;;;6.39;40.53;101491.78;1721767;82;21034;-51
2022/01/21 07:18:38;;;;;;;5.20;1.92;;;;;;;6.39;40.45;101491.78;1721502;82;21003;-51
2022/01/21 07:21:05;;;;;;;7.87;2.60;;;;;;;6.38;40.27;101508.16;1721390;82;21489;-50
2022/01/21 07:23:31;;;;;;;4.97;2.27;;;;;;;6.40;40.25;101500.41;1720500;82;21034;-51
2022/01/21 07:25:57;;;;;;;4.60;2.25;;;;;;;6.42;40.22;101507.33;1734266;81;20983;-51
2022/01/21 07:28:24;;;;;;;5.20;2.33;;;;;;;6.43;40.28;101514.21;1736603;81;21053;-51
2022/01/21 07:30:50;;;;;;;6.12;2.10;;;;;;;6.43;40.24;101516.80;1734289;81;21066;-51
2022/01/21 07:33:17;;;;;;;5.60;2.25;;;;;;;6.46;39.65;101519.84;1735210;81;21089;-52
2022/01/21 07:35:43;;;;;;;5.72;1.70;;;;;;;6.48;39.50;101516.41;1735672;82;21054;-51
2022/01/21 07:38:11;;;;;;;3.72;2.08;;;;;;;6.52;39.28;101516.88;1736709;81;20983;-51
2022/01/21 07:40:38;;;;;;;3.98;2.00;;;;;;;6.50;39.08;101518.58;1736638;81;21023;-51
2022/01/21 07:43:04;;;;;;;5.75;2.12;;;;;;;6.50;38.97;101521.17;1733979;81;21027;-51
2022/01/21 07:45:32;;;;;;;4.15;2.20;;;;;;;6.51;38.56;101515.58;1733338;81;20992;-51
2022/01/21 07:47:58;;;;;;;4.85;1.67;;;;;;;6.50;38.24;101517.29;1733741;81;21038;-51
2022/01/21 07:50:25;;;;;;;4.40;2.00;;;;;;;6.47;38.29;101514.67;1733677;81;20983;-51
2022/01/21 07:52:51;;;;;;;3.47;1.87;;;;;;;6.45;38.10;101505.20;1734289;81;21046;-51
2022/01/21 07:55:18;;;;;;;2.25;1.60;;;;;;;6.43;38.04;101505.16;1736457;81;21499;-51
2022/01/21 07:57:44;;;;;;;3.05;1.77;;;;;;;6.45;37.98;101511.20;1736682;81;21082;-51
2022/01/21 08:00:12;;;;;;;3.25;1.50;;;;;;;6.45;37.96;101506.04;1734569;81;21007;-51
2022/01/21 08:02:41;;;;;;;3.95;1.72;;;;;;;6.48;38.11;101519.00;1734487;81;21018;-51
2022/01/21 08:05:09;;;;;;;5.15;1.82;;;;;;;6.50;37.87;101523.75;1735556;82;21027;-51
2022/01/21 08:07:36;;;;;;;2.12;1.67;;;;;;;6.50;37.48;101532.80;1736721;82;21027;-51
2022/01/21 08:10:04;;;;;;;2.55;1.67;;;;;;;6.48;37.34;101524.17;1736599;81;21062;-51
2022/01/21 08:12:32;;;;;;;6.12;2.47;;;;;;;6.47;37.17;101526.30;1721391;81;21042;-51
2022/01/21 08:14:58;;;;;;;3.80;1.90;;;;;;;6.46;36.92;101522.42;1734950;81;21491;-51
2022/01/21 08:17:29;;;;;;;3.80;1.87;;;;;;;6.45;37.02;101513.80;1735387;82;21086;-51
2022/01/21 08:19:53;;;;;;;3.65;1.45;;;;;;;6.45;37.42;101508.63;1732266;82;21007;-51
2022/01/21 08:22:22;;;;;;;4.22;2.00;;;;;;;6.44;37.44;101510.78;1731564;81;20972;-51
2022/01/21 08:24:48;;;;;;;5.83;2.12;;;;;;;6.43;37.31;101501.70;1733328;81;21062;-51
2022/01/21 08:27:15;;;;;;;3.98;2.40;;;;;;;6.39;37.68;101510.30;1733702;81;21019;-51
2022/01/21 08:29:42;;;;;;;5.65;2.30;;;;;;;6.36;37.40;101521.92;1733133;81;20987;-51
2022/01/21 08:32:08;;;;;;;5.95;2.50;;;;;;;6.33;37.92;101516.30;1736586;81;21006;-51
2022/01/21 08:34:35;;;;;;;5.12;2.65;;;;;;;6.32;38.24;101518.45;1733555;81;21046;-51
2022/01/21 08:37:02;;;;;;;3.90;2.30;;;;;;;6.32;38.18;101526.21;1735377;81;21483;-52
2022/01/21 08:39:30;;;;;;;5.85;2.58;;;;;;;6.33;38.26;101524.05;1732433;81;21550;-51
2022/01/21 08:41:56;;;;;;;2.52;1.85;;;;;;;6.38;38.43;101530.13;1738119;81;21535;-51
2022/01/21 08:44:23;;;;;;;4.90;2.00;;;;;;;6.43;38.26;101527.13;1736377;81;21027;-51
2022/01/21 08:46:49;;;;;;;5.08;2.25;;;;;;;6.47;38.04;101518.55;1733285;81;21050;-51
2022/01/21 08:49:19;;;;;;;7.58;2.25;;;;;;;6.50;37.05;101513.83;1733445;81;20987;-51
2022/01/21 08:51:56;;;;;;;3.45;1.85;;;;;;;6.52;37.55;101524.63;1733199;81;20995;-51
2022/01/21 08:54:21;;;;;;;4.67;1.92;;;;;;;6.53;36.94;101515.16;1733629;81;21050;-51
2022/01/21 08:56:49;;;;;;;6.35;2.75;;;;;;;6.55;37.11;101519.46;1733908;81;21047;-51
2022/01/21 08:59:16;;;;;;;5.08;2.20;;;;;;;6.57;36.75;101524.21;1734792;81;21003;-51
2022/01/21 09:01:46;;;;;;;5.67;2.20;;;;;;;6.63;37.08;101518.24;1733648;81;21046;-51
2022/01/21 09:04:12;;;;;;;4.55;1.92;;;;;;;6.69;36.75;101529.04;1681903;84;21010;-51
2022/01/21 09:06:38;;;;;;;3.90;2.35;;;;;;;6.74;36.57;101525.61;1682591;85;21085;-51
2022/01/21 09:09:05;;;;;;;4.58;1.80;;;;;;;6.83;36.43;101526.98;1683586;85;21058;-51
2022/01/21 09:11:31;;;;;;;4.60;1.80;;;;;;;6.89;36.60;101524.84;1683109;85;21050;-51
2022/01/21 09:14:01;;;;;;;4.15;1.98;;;;;;;6.97;36.58;101524.45;1671006;85;21089;-51
2022/01/21 09:16:29;;;;;;;4.92;2.10;;;;;;;7.02;36.72;101523.64;1687564;84;21145;-51
2022/01/21 09:18:56;;;;;;;4.90;2.47;;;;;;;7.10;36.17;101522.37;1680942;85;21121;-51
2022/01/21 09:21:27;;;;;;;3.62;1.80;;;;;;;7.20;35.60;101525.43;1683611;84;21522;-51
2022/01/21 09:23:54;;;;;;;4.33;2.08;;;;;;;7.28;35.03;101523.31;1683407;84;21530;-51
2022/01/21 09:26:22;;;;;;;2.75;1.52;;;;;;;7.34;35.54;101517.28;1680370;84;21715;-51
2022/01/21 09:28:49;;;;;;;4.95;2.25;;;;;;;7.38;35.95;101522.91;1680618;84;21155;-51
2022/01/21 09:31:16;;;;;;;3.08;1.67;;;;;;;7.41;35.31;101524.22;1680454;84;21014;-51
2022/01/21 09:33:42;;;;;;;2.87;1.62;;;;;;;7.41;35.11;101516.45;1680390;84;21530;-51
2022/01/21 09:36:11;;;;;;;2.52;1.37;;;;;;;7.44;35.19;101519.04;1680941;84;21605;-51
2022/01/21 09:38:39;;;;;;;2.40;1.67;;;;;;;7.46;34.11;101509.55;1678535;84;21566;-51
2022/01/21 09:41:06;;;;;;;3.87;2.02;;;;;;;7.43;33.67;101513.44;1683452;85;21098;-51
2022/01/21 09:43:33;;;;;;;5.00;2.60;;;;;;;7.39;34.01;101515.59;1680951;85;21096;-52
2022/01/21 09:46:04;;;;;;;6.35;2.98;;;;;;;7.35;34.51;101512.13;1682418;85;21010;-51
2022/01/21 09:48:35;;;;;;;6.08;2.60;;;;;;;7.30;35.00;101505.19;1678322;84;21043;-51
2022/01/21 09:51:00;;;;;;;5.10;2.60;;;;;;;7.24;34.54;101501.28;1675399;85;21034;-51
2022/01/21 09:53:35;;;;;;;4.62;2.00;;;;;;;7.19;34.99;101481.84;1685527;85;21522;-51
2022/01/21 09:56:05;;;;;;;7.58;2.87;;;;;;;7.16;34.58;101492.63;1683727;85;21502;-52
2022/01/21 09:58:32;;;;;;;3.25;2.17;;;;;;;7.15;34.68;101488.33;1686789;83;21006;-51
2022/01/21 10:01:05;;;;;;;2.90;1.95;;;;;;;7.15;35.01;101479.27;1680422;85;20990;-51
2022/01/21 10:03:32;;;;;;;5.45;2.40;;;;;;;7.14;35.13;101482.70;1678155;85;21665;-51
2022/01/21 10:06:00;;;;;;;4.25;2.45;;;;;;;7.12;35.20;101480.12;1679879;85;21081;-51
2022/01/21 10:08:27;;;;;;;3.90;2.40;;;;;;;7.13;35.78;101475.81;1727564;81;21062;-52
2022/01/21 10:10:54;;;;;;;4.50;2.42;;;;;;;7.10;35.70;101469.31;1734059;81;21106;-51
2022/01/21 10:13:21;;;;;;;12.35;3.10;;;;;;;7.10;35.88;101461.55;1735211;81;20979;-51
2022/01/21 10:15:48;;;;;;;5.28;3.10;;;;;;;7.11;35.83;101467.18;1735473;81;20983;-51
2022/01/21 10:18:20;;;;;;;6.45;4.00;;;;;;;7.11;35.58;101464.59;1736512;81;21475;-51
2022/01/21 10:23:40;;;;;;;5.22;3.12;;;;;;;7.15;35.24;101459.86;1573041;89;21634;-50
2022/01/21 10:26:09;;;;;;;4.53;2.40;;;;;;;7.17;35.15;101447.79;1561032;89;21110;-52
2022/01/21 10:28:38;;;;;;;3.40;1.90;;;;;;;7.20;34.96;101451.66;1556289;91;21074;-52
2022/01/21 10:31:14;;;;;;;4.17;1.60;;;;;;;7.23;33.77;101449.10;1560389;91;21167;-52
2022/01/21 10:33:49;;;;;;;4.37;1.90;;;;;;;7.28;33.82;101442.19;1566716;91;21093;-52
2022/01/21 10:36:29;;;;;;;3.55;1.77;;;;;;;7.34;34.21;101429.27;1567847;91;21086;-52
2022/01/21 10:41:34;;;;;;;3.70;1.82;;;;;;;7.41;34.30;101441.38;1506293;94;21045;-52
2022/01/21 10:44:13;;;;;;;4.35;1.62;;;;;;;7.43;34.61;101442.23;1509438;94;21157;-52
2022/01/21 10:46:46;;;;;;;3.40;1.70;;;;;;;7.45;34.37;101442.23;1508234;94;21273;-52
2022/01/21 10:49:13;;;;;;;3.05;1.85;;;;;;;7.44;34.63;101445.24;1508124;94;21110;-52
2022/01/21 10:51:42;;;;;;;4.20;1.75;;;;;;;7.45;34.83;101444.40;1507903;94;21577;-54
2022/01/21 10:54:29;;;;;;;4.90;1.52;;;;;;;7.52;33.96;101454.34;1500256;95;21116;-52
2022/01/21 10:57:16;;;;;;;3.08;1.67;;;;;;;7.60;33.40;101457.80;1474822;97;21119;-52
2022/01/21 11:00:06;;;;;;;5.90;2.37;;;;;;;7.68;33.21;101451.78;1452403;98;21182;-54
2022/01/21 11:05:28;;;;;;;2.15;1.52;;;;;;;7.66;32.27;101453.50;1427985;100;21117;-51
2022/01/21 11:08:02;;;;;;;5.08;2.00;;;;;;;7.70;31.95;101446.17;1389342;102;21188;-51
2022/01/21 11:10:48;;;;;;;4.70;1.87;;;;;;;7.77;31.81;101449.17;1427450;99;21185;-52
2022/01/21 11:13:22;;;;;;;3.67;1.57;;;;;;;7.86;31.86;101450.49;1417755;100;21124;-52
2022/01/21 11:16:16;;;;;;;4.50;2.67;;;;;;;7.92;31.51;101456.09;1427138;99;21651;-52
2022/01/21 11:18:54;;;;;;;3.67;1.67;;;;;;;7.97;30.96;101446.61;1412256;101;21167;-51
2022/01/21 11:21:22;;;;;;;3.58;1.60;;;;;;;8.02;30.72;101436.66;1450993;98;21164;-51
2022/01/21 11:23:48;;;;;;;3.35;1.47;;;;;;;8.06;30.36;101439.69;1451596;97;21647;-51
2022/01/21 11:26:17;;;;;;;2.85;1.50;;;;;;;8.08;30.17;101439.25;1457659;97;21169;-51
2022/01/21 11:28:51;;;;;;;4.10;1.40;;;;;;;8.12;29.85;101426.72;1458607;96;21682;-52
2022/01/21 11:31:23;;;;;;;2.10;1.50;;;;;;;8.14;29.72;101435.35;1462101;96;21552;-52
2022/01/21 11:33:51;;;;;;;1.80;1.30;;;;;;;8.17;29.49;101441.84;1452471;96;21689;-51
2022/01/21 11:36:18;;;;;;;2.92;1.52;;;;;;;8.16;29.40;101433.63;1454046;96;21184;-52
2022/01/21 11:38:45;;;;;;;3.30;1.60;;;;;;;8.17;29.16;101437.95;1450562;95;21079;-51
2022/01/21 11:43:51;;;;;;;3.05;2.08;;;;;;;8.16;28.84;101435.38;1484935;95;21091;-51
2022/01/21 11:46:25;;;;;;;3.15;1.57;;;;;;;8.14;29.36;101436.65;1493549;94;21110;-52
2022/01/21 11:48:55;;;;;;;3.08;1.55;;;;;;;8.16;30.10;101427.14;1485238;95;21103;-52
2022/01/21 11:51:34;;;;;;;3.20;1.62;;;;;;;8.19;30.21;101428.45;1485245;95;21620;-51
2022/01/21 11:54:10;;;;;;;3.05;1.25;;;;;;;8.20;30.31;101424.97;1533822;92;21041;-51
2022/01/21 11:57:00;;;;;;;2.45;1.62;;;;;;;8.23;30.17;101422.39;1556682;92;21597;-51
2022/01/21 11:59:41;;;;;;;1.90;1.50;;;;;;;8.22;29.99;101427.13;1548838;92;21048;-51
2022/01/21 12:02:23;;;;;;;2.02;1.40;;;;;;;8.22;29.67;101432.31;1594417;87;21081;-52
2022/01/21 12:05:01;;;;;;;2.40;1.50;;;;;;;8.18;29.62;101431.89;1646551;86;21075;-51
2022/01/21 12:10:13;;;;;;;2.58;1.42;;;;;;;8.13;29.78;101432.34;1581424;90;21110;-52
2022/01/21 12:12:58;;;;;;;4.35;2.00;;;;;;;8.12;29.85;101431.90;1584115;90;21030;-51
2022/01/21 12:18:33;;;;;;;2.62;1.70;;;;;;;8.06;29.92;101434.50;1580974;90;21131;-51
2022/01/21 12:20:49;;;;;;;3.50;1.67;;;;;;;8.06;29.91;101437.09;1583128;90;21122;-51
2022/01/21 12:23:25;;;;;;;3.98;1.72;;;;;;;8.04;29.94;101431.05;1578156;90;21110;-51
2022/01/21 12:26:26;;;;;;;3.67;1.90;;;;;;;8.04;30.04;101438.82;1588907;89;21106;-52
2022/01/21 12:28:58;;;;;;;2.83;1.70;;;;;;;8.03;30.13;101434.52;1570577;90;21058;-52
2022/01/21 12:31:44;;;;;;;2.20;1.65;;;;;;;8.05;29.84;101425.44;1555331;91;21614;-52
2022/01/21 12:34:26;;;;;;;1.82;1.40;;;;;;;8.05;29.82;101425.44;1571342;90;21083;-52
2022/01/21 12:37:01;;;;;;;2.58;1.67;;;;;;;8.07;29.34;101427.59;1571290;90;21085;-52
2022/01/21 12:39:44;;;;;;;2.15;1.37;;;;;;;8.08;28.86;101422.83;1567924;90;21158;-51
2022/01/21 12:42:28;;;;;;;2.42;1.52;;;;;;;8.07;28.69;101418.09;1587278;89;21057;-51
2022/01/21 12:45:13;;;;;;;2.25;1.60;;;;;;;8.08;28.79;101417.64;1587121;89;21042;-52
2022/01/21 12:47:44;;;;;;;3.60;1.60;;;;;;;8.07;28.73;101414.21;1578687;89;21607;-52
2022/01/21 12:50:39;;;;;;;2.27;1.50;;;;;;;8.07;28.61;101416.80;1587195;89;21081;-52